Time;durP1;ratioP1;P1;durP2;ratioP2;P2;SDS_P1;SDS_P2;PMS_P1;PMS_P2;Temp;Humidity;BMP_temperature;BMP_pressure;BME280_temperature;BME280_humidity;BME280_pressure;Samples;Min_cycle;Max_cycle;Signal;HPM_P1;HPM_P2
2021/05/19 00:01:49;;;;;;;9.40;8.50;;;;;;;11.42;66.24;101296.94;6088276;29;20241;-48
2021/05/19 00:05:11;;;;;;;9.00;8.20;;;;;;;11.53;65.59;101291.66;6058625;29;20252;-53
2021/05/19 00:08:32;;;;;;;10.10;9.27;;;;;;;11.54;65.42;101289.94;6082254;29;20241;-52
2021/05/19 00:11:53;;;;;;;9.23;8.50;;;;;;;11.46;65.68;101295.19;6092733;29;20228;-48
2021/05/19 00:15:13;;;;;;;10.53;9.53;;;;;;;11.01;67.20;101297.09;6082776;29;20240;-48
2021/05/19 00:18:34;;;;;;;8.50;7.80;;;;;;;11.25;66.49;101292.69;6089934;29;20231;-50
2021/05/19 00:21:55;;;;;;;9.03;8.27;;;;;;;11.55;65.26;101295.13;6093202;29;20291;-49
2021/05/19 00:25:16;;;;;;;10.07;9.27;;;;;;;11.18;66.27;101300.50;6089744;29;20332;-46
2021/05/19 00:28:37;;;;;;;9.70;8.80;;;;;;;11.37;65.36;101297.84;6106231;29;20234;-51
2021/05/19 00:31:58;;;;;;;9.50;8.60;;;;;;;11.19;65.95;101297.03;6095053;29;20658;-49
2021/05/19 00:35:19;;;;;;;8.53;7.80;;;;;;;11.53;64.92;101304.69;6075888;29;20237;-52
2021/05/19 00:38:39;;;;;;;10.57;9.77;;;;;;;11.45;65.38;101303.88;6103088;29;20233;-46
2021/05/19 00:42:00;;;;;;;10.60;9.70;;;;;;;11.51;65.55;101314.28;6092945;29;20229;-46
2021/05/19 00:45:21;;;;;;;11.30;10.23;;;;;;;11.49;65.12;101310.81;6091709;29;20602;-48
2021/05/19 00:48:42;;;;;;;12.30;11.20;;;;;;;11.57;65.53;101311.66;6093639;29;20233;-45
2021/05/19 00:52:03;;;;;;;12.93;11.57;;;;;;;11.36;65.88;101309.13;6094062;29;20253;-45
2021/05/19 00:55:25;;;;;;;14.27;13.00;;;;;;;11.41;65.83;101310.00;6091324;29;20332;-50
2021/05/19 00:58:46;;;;;;;13.00;11.80;;;;;;;11.53;65.42;101307.31;6092276;29;20229;-51
2021/05/19 01:02:08;;;;;;;13.30;12.20;;;;;;;11.25;66.84;101310.94;6094676;29;20224;-48
2021/05/19 01:05:35;;;;;;;15.13;13.57;;;;;;;11.45;65.59;101311.72;6085538;29;20751;-48
2021/05/19 01:12:45;;;;;;;16.60;14.73;;;;;;;11.26;66.71;101312.66;6060835;29;20229;-50
2021/05/19 01:16:06;;;;;;;14.00;12.60;;;;;;;11.21;66.67;101303.13;6099616;29;20240;-49
2021/05/19 01:19:28;;;;;;;14.30;13.03;;;;;;;10.90;67.55;101318.00;6099410;29;20247;-46
2021/05/19 01:22:49;;;;;;;16.73;15.03;;;;;;;11.18;66.73;101316.16;6085419;29;20259;-52
2021/05/19 01:26:11;;;;;;;16.70;15.13;;;;;;;11.17;66.73;101314.44;6098008;29;20252;-52
2021/05/19 01:29:33;;;;;;;17.13;15.30;;;;;;;11.14;67.16;101324.88;6095255;29;20603;-48
2021/05/19 01:32:55;;;;;;;19.40;17.57;;;;;;;11.09;67.48;101317.94;6084773;29;20240;-47
2021/05/19 01:36:16;;;;;;;18.27;16.57;;;;;;;11.13;67.31;101319.69;6091137;29;20236;-47
2021/05/19 01:39:37;;;;;;;17.87;16.17;;;;;;;10.92;68.08;101323.22;6086926;29;20636;-51
2021/05/19 01:42:59;;;;;;;17.93;16.13;;;;;;;11.16;66.67;101312.69;6098485;29;20240;-47
2021/05/19 01:46:35;;;;;;;19.43;17.50;;;;;;;11.15;67.12;101315.31;6099123;29;20248;-48
2021/05/19 01:49:56;;;;;;;18.63;16.90;;;;;;;11.06;67.68;101321.41;6094238;29;20237;-51
2021/05/19 01:53:17;;;;;;;17.93;16.20;;;;;;;11.02;68.40;101320.56;6095367;29;20232;-47
2021/05/19 01:56:39;;;;;;;17.47;15.67;;;;;;;10.91;68.38;101327.53;6097890;29;20228;-51
2021/05/19 02:00:01;;;;;;;17.07;15.50;;;;;;;10.84;68.64;101320.63;6097713;29;20740;-47
2021/05/19 02:03:25;;;;;;;18.07;16.43;;;;;;;11.18;67.32;101321.38;6096498;29;20241;-50
2021/05/19 02:06:58;;;;;;;19.40;17.43;;;;;;;10.99;67.66;101324.91;6092412;29;20229;-47
2021/05/19 02:10:28;;;;;;;20.30;18.20;;;;;;;11.01;67.73;101326.66;6095954;29;20237;-48
2021/05/19 02:13:51;;;;;;;18.80;17.03;;;;;;;10.95;67.99;101328.41;6091184;29;20233;-47
2021/05/19 02:17:12;;;;;;;16.53;15.10;;;;;;;11.06;68.12;101329.25;6106076;29;20253;-51
2021/05/19 02:20:33;;;;;;;20.47;18.50;;;;;;;11.20;66.92;101332.66;6086597;29;20706;-49
2021/05/19 02:23:54;;;;;;;17.60;15.87;;;;;;;10.95;67.95;101334.50;6083305;29;20264;-46
2021/05/19 02:27:15;;;;;;;19.47;17.57;;;;;;;11.10;67.01;101322.28;6102760;29;20236;-46
2021/05/19 02:30:37;;;;;;;20.20;18.13;;;;;;;11.04;67.08;101326.63;6090239;29;20522;-46
2021/05/19 02:34:01;;;;;;;19.93;18.03;;;;;;;11.04;67.28;101323.16;6104380;29;20236;-46
2021/05/19 02:37:22;;;;;;;18.90;17.17;;;;;;;10.72;68.51;101331.94;6092040;29;20255;-46
2021/05/19 02:40:43;;;;;;;18.80;17.00;;;;;;;10.77;68.13;101329.31;6098634;29;20257;-46
2021/05/19 02:44:05;;;;;;;18.10;16.23;;;;;;;10.89;68.19;101329.28;6083229;29;20232;-49
2021/05/19 02:47:26;;;;;;;20.37;18.47;;;;;;;11.06;67.47;101328.38;6096257;29;20236;-48
2021/05/19 02:50:47;;;;;;;17.80;16.10;;;;;;;11.20;66.97;101323.97;6088715;29;20248;-46
2021/05/19 02:54:08;;;;;;;19.23;17.33;;;;;;;11.06;67.43;101318.81;6095949;29;20224;-46
2021/05/19 02:57:28;;;;;;;17.70;16.00;;;;;;;11.05;67.41;101322.31;6094275;29;20240;-50
2021/05/19 03:00:48;;;;;;;20.43;18.63;;;;;;;10.79;68.21;101320.59;6093824;29;20229;-49
2021/05/19 03:04:10;;;;;;;18.60;16.90;;;;;;;10.59;69.05;101325.00;6090597;29;20240;-48
2021/05/19 03:07:30;;;;;;;17.87;16.00;;;;;;;10.70;68.67;101320.66;6095346;29;20232;-47
2021/05/19 03:10:50;;;;;;;17.93;16.23;;;;;;;10.54;69.80;101326.72;6089546;29;20260;-46
2021/05/19 03:14:11;;;;;;;19.17;17.47;;;;;;;10.73;68.88;101331.03;6081856;29;20340;-50
2021/05/19 03:17:32;;;;;;;18.80;17.00;;;;;;;10.62;69.66;101335.41;6095175;29;20255;-47
2021/05/19 03:20:53;;;;;;;18.87;17.00;;;;;;;10.68;69.15;101335.38;6091787;29;20241;-49
2021/05/19 03:24:14;;;;;;;18.43;16.60;;;;;;;10.51;69.52;101329.34;6093359;29;20334;-46
2021/05/19 03:27:34;;;;;;;19.87;17.90;;;;;;;10.58;69.48;101333.66;6094556;29;20227;-50
2021/05/19 03:30:55;;;;;;;20.43;18.53;;;;;;;10.55;69.36;101323.28;6091550;29;20244;-50
2021/05/19 03:34:16;;;;;;;18.57;16.93;;;;;;;10.48;70.19;101325.00;6087670;29;20237;-46
2021/05/19 03:37:39;;;;;;;20.03;18.20;;;;;;;10.60;69.55;101327.59;6081132;29;20522;-46
2021/05/19 03:41:00;;;;;;;19.47;17.57;;;;;;;10.61;69.36;101333.69;6079869;29;20228;-48
2021/05/19 03:44:20;;;;;;;18.80;17.10;;;;;;;10.85;68.54;101340.56;6093169;29;20236;-47
2021/05/19 03:47:41;;;;;;;19.17;17.47;;;;;;;10.72;69.19;101344.97;6080424;29;20236;-49
2021/05/19 03:51:03;;;;;;;20.33;18.33;;;;;;;10.48;69.67;101332.81;6088686;29;20236;-48
2021/05/19 03:54:24;;;;;;;19.53;17.63;;;;;;;10.70;69.06;101338.88;6093921;29;20225;-50
2021/05/19 03:57:45;;;;;;;20.80;18.63;;;;;;;10.69;69.40;101342.34;6095930;29;20315;-47
2021/05/19 04:01:05;;;;;;;17.30;15.50;;;;;;;10.59;69.73;101345.84;6090038;29;20739;-50
2021/05/19 04:04:26;;;;;;;19.70;17.93;;;;;;;10.79;68.79;101349.28;6080497;29;20245;-48
2021/05/19 04:07:48;;;;;;;17.70;16.03;;;;;;;10.79;69.23;101351.88;6090470;29;20249;-48
2021/05/19 04:11:11;;;;;;;17.43;15.73;;;;;;;10.90;68.93;101346.66;6089368;29;20232;-46
2021/05/19 04:14:31;;;;;;;18.47;16.87;;;;;;;10.80;68.38;101353.63;6083006;29;20249;-45
2021/05/19 04:17:51;;;;;;;19.27;17.33;;;;;;;11.10;67.37;101359.63;6092754;29;20236;-47
2021/05/19 04:21:12;;;;;;;18.70;16.93;;;;;;;10.83;68.41;101360.56;6092253;29;20985;-46
2021/05/19 04:24:32;;;;;;;16.53;15.00;;;;;;;10.95;68.15;101364.88;6094209;29;20260;-45
2021/05/19 04:27:54;;;;;;;14.57;13.27;;;;;;;11.09;67.63;101360.53;6093854;29;20508;-51
2021/05/19 04:31:14;;;;;;;17.00;15.50;;;;;;;11.15;67.54;101368.31;6090719;29;20932;-47
2021/05/19 04:34:37;;;;;;;17.23;15.73;;;;;;;11.16;67.44;101370.03;6091579;29;20236;-51
2021/05/19 04:37:58;;;;;;;17.03;15.37;;;;;;;11.29;67.22;101364.81;6090381;29;20240;-47
2021/05/19 04:41:20;;;;;;;16.07;14.57;;;;;;;11.21;67.63;101372.66;6096096;29;20591;-52
2021/05/19 04:44:41;;;;;;;15.90;14.60;;;;;;;11.41;67.07;101367.38;6088346;29;20237;-51
2021/05/19 04:48:02;;;;;;;15.97;14.43;;;;;;;11.29;67.01;101373.50;6092097;29;20232;-51
2021/05/19 04:51:22;;;;;;;17.20;15.57;;;;;;;11.51;66.60;101374.28;6106059;29;20240;-47
2021/05/19 04:54:43;;;;;;;15.07;13.67;;;;;;;11.37;67.20;101381.28;6085037;29;20237;-49
2021/05/19 04:58:05;;;;;;;14.10;12.90;;;;;;;11.66;66.08;101380.31;6094785;29;20236;-48
2021/05/19 05:01:27;;;;;;;15.77;14.27;;;;;;;11.45;67.14;101395.16;6091405;29;20237;-48
2021/05/19 05:04:48;;;;;;;15.57;14.17;;;;;;;11.55;67.14;101399.47;6087033;29;20252;-49
2021/05/19 05:08:08;;;;;;;16.00;14.43;;;;;;;11.31;67.84;101399.56;6101607;29;20607;-50
2021/05/19 05:11:29;;;;;;;14.30;12.90;;;;;;;11.51;67.01;101402.97;6094819;29;20771;-48
2021/05/19 05:14:50;;;;;;;13.83;12.40;;;;;;;11.50;67.08;101403.84;6093428;29;20232;-46
2021/05/19 05:18:11;;;;;;;13.60;12.30;;;;;;;11.95;65.50;101403.69;6091861;29;20331;-49
2021/05/19 05:21:33;;;;;;;15.13;12.47;;;;;;;11.75;65.41;101406.38;6094970;29;20817;-47
2021/05/19 05:24:53;;;;;;;12.23;11.10;;;;;;;12.10;64.50;101397.53;6083728;29;20268;-48
2021/05/19 05:28:13;;;;;;;11.43;10.43;;;;;;;12.30;63.07;101398.25;6079558;29;20241;-48
2021/05/19 05:31:34;;;;;;;12.83;11.43;;;;;;;12.23;63.56;101393.94;6095035;29;20228;-50
2021/05/19 05:34:55;;;;;;;13.50;11.27;;;;;;;12.46;62.88;101401.59;6094746;29;20233;-47
2021/05/19 05:38:16;;;;;;;9.90;9.00;;;;;;;12.47;62.32;101407.72;6090100;29;20502;-51
2021/05/19 05:41:36;;;;;;;10.77;9.77;;;;;;;12.55;62.15;101412.00;6084156;29;20323;-48
2021/05/19 05:44:57;;;;;;;10.77;9.67;;;;;;;12.67;61.83;101407.53;6092038;29;20236;-47
2021/05/19 05:48:18;;;;;;;9.43;8.63;;;;;;;12.86;61.62;101408.25;6099697;29;20229;-46
2021/05/19 05:51:39;;;;;;;10.70;9.60;;;;;;;12.83;61.26;101408.28;6089000;29;20240;-46
2021/05/19 05:55:00;;;;;;;12.77;10.67;;;;;;;12.71;61.73;101417.94;6091193;29;20236;-48
2021/05/19 05:58:21;;;;;;;9.93;9.03;;;;;;;12.71;61.33;101417.09;6090212;29;20324;-49
2021/05/19 06:01:41;;;;;;;11.83;10.63;;;;;;;11.46;65.10;101420.38;6093642;29;20237;-46
2021/05/19 06:05:01;;;;;;;13.43;12.13;;;;;;;12.19;63.00;101424.44;6091526;29;20773;-54
2021/05/19 06:08:23;;;;;;;11.23;10.40;;;;;;;11.70;64.16;101424.63;6089069;29;20657;-49
2021/05/19 06:11:43;;;;;;;12.53;11.33;;;;;;;11.81;64.87;101429.81;6086305;29;20244;-50
2021/05/19 06:15:05;;;;;;;12.07;10.87;;;;;;;12.21;63.20;101433.13;6089118;29;20236;-50
2021/05/19 06:18:26;;;;;;;13.07;11.03;;;;;;;12.27;61.84;101426.13;6090317;29;20897;-48
2021/05/19 06:21:46;;;;;;;12.27;10.90;;;;;;;12.25;62.77;101431.34;6087941;29;20233;-49
2021/05/19 06:25:09;;;;;;;11.30;10.20;;;;;;;12.58;61.66;101432.00;6090258;29;20233;-48
2021/05/19 06:28:29;;;;;;;12.40;10.43;;;;;;;11.91;64.01;101431.53;6096156;29;20240;-50
2021/05/19 06:31:49;;;;;;;11.50;10.50;;;;;;;12.47;63.80;101433.84;6088839;29;20241;-50
2021/05/19 06:35:11;;;;;;;11.60;10.40;;;;;;;12.94;62.33;101450.88;6095117;29;20597;-52
2021/05/19 06:38:31;;;;;;;10.20;9.23;;;;;;;13.07;60.22;101433.34;6081475;29;20229;-48
2021/05/19 06:41:52;;;;;;;8.73;8.03;;;;;;;13.32;60.22;101441.84;6086253;29;20244;-47
2021/05/19 06:45:14;;;;;;;9.37;8.57;;;;;;;13.24;59.82;101444.50;6085556;29;20240;-50
2021/05/19 06:48:38;;;;;;;9.13;7.97;;;;;;;13.50;58.61;101452.09;6088920;29;20589;-51
2021/05/19 06:51:58;;;;;;;9.80;8.33;;;;;;;13.68;57.84;101445.78;6086799;29;20232;-51
2021/05/19 06:55:19;;;;;;;9.53;8.73;;;;;;;14.34;55.30;101437.03;6091896;29;21096;-50
2021/05/19 06:58:40;;;;;;;7.63;6.93;;;;;;;14.24;53.82;101445.94;6086300;29;20503;-48
2021/05/19 07:02:01;;;;;;;7.80;7.10;;;;;;;14.31;54.16;101444.09;6090222;29;20232;-47
2021/05/19 07:05:22;;;;;;;6.53;6.03;;;;;;;13.73;55.05;101443.13;6089927;29;20252;-52
2021/05/19 07:08:43;;;;;;;6.17;5.67;;;;;;;13.69;54.25;101441.44;6086508;29;20236;-49
2021/05/19 07:12:03;;;;;;;5.53;5.10;;;;;;;14.36;52.82;101443.16;6086947;29;20263;-51
2021/05/19 07:15:31;;;;;;;6.37;5.80;;;;;;;14.17;52.51;101439.91;6091233;29;20291;-48
2021/05/19 07:18:55;;;;;;;5.27;4.87;;;;;;;13.84;52.77;101443.84;6090128;29;20678;-45
2021/05/19 07:22:15;;;;;;;5.90;4.37;;;;;;;13.95;52.10;101449.78;6091230;29;20827;-49
2021/05/19 07:25:36;;;;;;;5.07;4.63;;;;;;;14.25;52.08;101446.78;6089534;29;20236;-46
2021/05/19 07:28:56;;;;;;;5.70;5.00;;;;;;;14.08;52.88;101454.91;6089306;29;20240;-46
2021/05/19 07:32:17;;;;;;;6.13;5.60;;;;;;;13.64;53.35;101449.31;6084314;29;20241;-51
2021/05/19 07:35:38;;;;;;;6.43;5.93;;;;;;;14.02;52.69;101447.97;6079276;29;20232;-51
2021/05/19 07:38:59;;;;;;;5.57;4.47;;;;;;;14.02;51.45;101455.84;6091282;29;20233;-46
2021/05/19 07:42:19;;;;;;;6.33;5.30;;;;;;;14.40;51.63;101450.94;6093695;29;20403;-49
2021/05/19 07:45:40;;;;;;;7.53;6.87;;;;;;;14.26;52.21;101454.63;6089423;29;20236;-48
2021/05/19 07:49:01;;;;;;;6.63;6.03;;;;;;;14.28;52.95;101458.09;6090442;29;20253;-52
2021/05/19 07:52:22;;;;;;;9.07;8.20;;;;;;;13.23;57.30;101455.84;6092641;29;20237;-47
2021/05/19 07:55:47;;;;;;;8.97;8.13;;;;;;;13.46;55.40;101450.41;6091291;29;20248;-49
2021/05/19 07:59:10;;;;;;;8.13;7.30;;;;;;;14.25;53.11;101458.16;6090203;29;20248;-51
2021/05/19 08:02:30;;;;;;;7.40;6.80;;;;;;;15.25;50.32;101443.44;6083125;29;20642;-48
2021/05/19 08:05:52;;;;;;;9.07;7.23;;;;;;;15.76;48.75;101445.13;6088966;29;20240;-51
2021/05/19 08:09:12;;;;;;;5.97;5.50;;;;;;;15.45;48.16;101440.44;6087339;29;20365;-49
2021/05/19 08:12:33;;;;;;;6.77;6.17;;;;;;;13.45;54.21;101453.88;6089383;29;20241;-52
2021/05/19 08:15:54;;;;;;;7.03;6.33;;;;;;;14.62;51.60;101449.78;6066968;29;20960;-49
2021/05/19 08:19:14;;;;;;;6.60;5.93;;;;;;;13.25;53.78;101455.81;6087427;29;20232;-50
2021/05/19 08:22:36;;;;;;;9.03;6.20;;;;;;;13.04;54.77;101452.53;6091228;29;20252;-53
2021/05/19 08:25:57;;;;;;;6.10;5.60;;;;;;;14.18;52.69;101464.34;6090711;29;20327;-46
2021/05/19 08:29:17;;;;;;;6.23;5.63;;;;;;;14.50;51.85;101455.16;6089394;29;20240;-52
2021/05/19 08:32:38;;;;;;;7.23;6.63;;;;;;;15.47;48.99;101446.53;6091785;29;20228;-52
2021/05/19 08:35:58;;;;;;;7.83;6.00;;;;;;;14.33;51.97;101455.41;6093505;29;20232;-54
2021/05/19 08:39:20;;;;;;;5.70;5.30;;;;;;;13.87;53.58;101454.28;6091551;29;20232;-50
2021/05/19 08:42:41;;;;;;;6.43;5.93;;;;;;;12.74;56.23;101456.28;6089406;29;20923;-51
2021/05/19 08:46:04;;;;;;;6.83;6.00;;;;;;;14.17;53.70;101459.97;6095232;29;20777;-48
2021/05/19 08:49:26;;;;;;;6.43;5.93;;;;;;;13.70;52.71;101458.84;6084640;29;20285;-51
2021/05/19 08:52:47;;;;;;;6.23;5.73;;;;;;;13.75;52.08;101454.44;6093126;29;20324;-47
2021/05/19 08:56:10;;;;;;;8.33;5.97;;;;;;;13.24;53.19;101448.84;6091038;29;20237;-50
2021/05/19 08:59:32;;;;;;;5.60;5.10;;;;;;;13.42;52.36;101453.06;6089451;29;20572;-48
2021/05/19 09:03:09;;;;;;;9.37;6.07;;;;;;;13.99;51.14;101458.47;6093274;29;20241;-48
2021/05/19 09:06:30;;;;;;;6.03;5.53;;;;;;;14.66;50.10;101454.06;6082430;29;20244;-51
2021/05/19 09:09:50;;;;;;;5.50;5.07;;;;;;;14.84;49.26;101457.28;6087808;29;20270;-50
2021/05/19 09:13:30;;;;;;;6.03;5.53;;;;;;;15.15;48.13;101442.72;6088631;29;20224;-52
2021/05/19 09:16:50;;;;;;;5.77;5.27;;;;;;;15.04;48.74;101443.81;6096201;29;21827;-48
2021/05/19 09:20:12;;;;;;;6.20;5.70;;;;;;;14.39;50.08;101455.31;6093271;29;20232;-49
2021/05/19 09:23:47;;;;;;;5.70;5.20;;;;;;;14.48;50.27;101454.31;6083831;29;20655;-48
2021/05/19 09:27:07;;;;;;;6.60;6.10;;;;;;;14.36;49.99;101465.84;6092170;29;20307;-48
2021/05/19 09:30:37;;;;;;;6.10;5.53;;;;;;;14.51;49.24;101452.50;6081081;29;20241;-47
2021/05/19 09:33:58;;;;;;;5.47;4.97;;;;;;;14.74;49.15;101446.94;6081620;29;20276;-47
2021/05/19 09:37:24;;;;;;;5.40;4.90;;;;;;;14.94;48.21;101449.22;6083782;29;20606;-51
2021/05/19 09:40:45;;;;;;;5.67;4.37;;;;;;;14.63;49.29;101446.25;6081375;29;20257;-50
2021/05/19 09:44:06;;;;;;;6.53;4.53;;;;;;;15.00;48.09;101437.75;6085164;29;20241;-48
2021/05/19 09:47:39;;;;;;;6.43;5.00;;;;;;;15.88;46.14;101442.22;6073654;29;20733;-53
2021/05/19 09:51:00;;;;;;;9.30;4.27;;;;;;;17.00;43.94;101433.50;6076560;29;20808;-52
2021/05/19 09:54:29;;;;;;;6.70;4.70;;;;;;;15.28;47.28;101450.41;6078562;29;20324;-48
2021/05/19 09:57:49;;;;;;;4.50;4.20;;;;;;;15.97;45.42;101437.66;6076089;29;20232;-46
2021/05/19 10:01:10;;;;;;;6.63;4.20;;;;;;;16.23;44.98;101451.09;6078147;29;20244;-51
2021/05/19 10:04:33;;;;;;;4.30;3.97;;;;;;;15.92;45.35;101443.88;6077137;29;21557;-51
2021/05/19 10:07:55;;;;;;;6.27;4.70;;;;;;;16.26;44.85;101445.75;6082209;29;20232;-50
2021/05/19 10:11:15;;;;;;;5.03;4.53;;;;;;;16.20;44.75;101451.16;6081416;29;20236;-54
2021/05/19 10:14:37;;;;;;;4.20;3.90;;;;;;;17.09;42.73;101440.28;6076149;29;20240;-49
2021/05/19 10:18:02;;;;;;;4.57;4.10;;;;;;;17.06;43.41;101440.34;6076268;29;20252;-49
2021/05/19 10:21:29;;;;;;;5.60;5.00;;;;;;;16.17;44.29;101446.00;6080307;29;20260;-52
2021/05/19 10:24:54;;;;;;;5.40;4.90;;;;;;;15.39;46.88;101447.56;6076717;29;20619;-52
2021/05/19 10:28:17;;;;;;;6.90;4.60;;;;;;;15.80;45.83;101431.03;6077288;29;20240;-52
2021/05/19 10:31:41;;;;;;;4.33;3.93;;;;;;;16.77;43.44;101431.44;6079656;29;20221;-50
2021/05/19 10:35:06;;;;;;;5.27;4.77;;;;;;;15.48;45.39;101422.00;6077120;29;20396;-54
2021/05/19 10:38:31;;;;;;;5.20;4.70;;;;;;;15.10;46.79;101412.22;6070549;29;20232;-53
2021/05/19 10:41:53;;;;;;;4.97;4.43;;;;;;;16.26;43.46;101408.97;6084628;29;20592;-50
2021/05/19 10:45:15;;;;;;;3.83;3.43;;;;;;;17.13;42.77;101415.59;6091898;29;20240;-50
2021/05/19 10:48:36;;;;;;;3.20;2.90;;;;;;;16.79;42.61;101407.69;6098429;29;20519;-50
2021/05/19 10:52:08;;;;;;;3.67;3.37;;;;;;;18.22;39.86;101401.94;6090227;29;20299;-51
2021/05/19 10:59:15;;;;;;;3.20;2.97;;;;;;;17.08;41.69;101399.97;6096564;29;20361;-50
2021/05/19 11:03:25;;;;;;;4.47;3.13;;;;;;;15.53;43.88;101412.28;6095326;29;20587;-54
2021/05/19 11:07:09;;;;;;;3.63;3.33;;;;;;;17.28;41.27;101395.91;6059338;29;20706;-51
2021/05/19 11:10:30;;;;;;;2.97;2.77;;;;;;;16.63;41.57;101394.06;6094342;29;20553;-48
2021/05/19 11:17:50;;;;;;;3.27;2.47;;;;;;;17.68;40.03;101389.50;6074960;29;20319;-51
2021/05/19 11:21:15;;;;;;;2.30;2.10;;;;;;;16.72;40.68;101393.84;6081628;29;20232;-52
2021/05/19 11:24:51;;;;;;;3.07;2.80;;;;;;;16.14;42.32;101380.34;6085479;29;20220;-52
2021/05/19 11:28:14;;;;;;;2.90;2.70;;;;;;;16.16;42.76;101385.59;6086350;29;20231;-50
2021/05/19 11:35:16;;;;;;;3.00;2.03;;;;;;;17.08;39.79;101376.28;6098367;28;20267;-46
2021/05/19 11:38:37;;;;;;;2.20;1.60;;;;;;;17.93;40.28;101378.25;6102181;28;20236;-51
2021/05/19 11:42:16;;;;;;;3.83;2.10;;;;;;;18.39;37.19;101371.53;6086825;28;20256;-50
2021/05/19 11:45:36;;;;;;;2.40;1.52;;;;;;;17.52;38.19;101357.47;6099830;28;21674;-46
2021/05/19 11:49:10;;;;;;;2.15;1.25;;;;;;;17.80;37.98;101372.47;6090502;29;20267;-47
2021/05/19 11:52:43;;;;;;;1.90;1.30;;;;;;;17.96;38.57;101368.47;6096051;29;20239;-49
2021/05/19 11:56:05;;;;;;;2.47;1.55;;;;;;;18.76;38.73;101365.00;6098238;29;20315;-52
2021/05/19 11:59:29;;;;;;;1.85;1.55;;;;;;;16.80;40.44;101373.47;6091870;29;20236;-51
2021/05/19 12:02:53;;;;;;;2.40;2.20;;;;;;;17.80;39.88;101369.84;6100180;29;20235;-50
2021/05/19 12:06:14;;;;;;;3.50;1.60;;;;;;;18.70;37.98;101366.94;6102753;29;20243;-52
2021/05/19 12:09:39;;;;;;;3.78;1.30;;;;;;;18.89;38.02;101366.34;6103398;29;20228;-45
2021/05/19 12:13:03;;;;;;;2.90;1.35;;;;;;;20.13;34.77;101363.47;6096954;29;20709;-48
2021/05/19 12:16:29;;;;;;;4.22;2.03;;;;;;;19.51;36.32;101364.13;6102022;28;20236;-49
2021/05/19 12:19:49;;;;;;;2.97;1.60;;;;;;;19.74;33.60;101361.47;6102038;29;20231;-48
2021/05/19 12:23:10;;;;;;;3.05;1.60;;;;;;;18.67;34.74;101359.13;6100463;28;20239;-52
2021/05/19 12:26:33;;;;;;;1.35;1.25;;;;;;;20.61;32.64;101354.47;6093274;29;20243;-51
2021/05/19 12:29:59;;;;;;;2.00;1.48;;;;;;;19.78;33.69;101355.16;6106997;29;20232;-49
2021/05/19 12:33:22;;;;;;;2.80;1.33;;;;;;;20.35;32.62;101349.38;6105411;29;20248;-50
2021/05/19 12:36:43;;;;;;;1.20;1.10;;;;;;;20.88;32.38;101359.50;6100428;29;20581;-50
2021/05/19 12:40:04;;;;;;;2.13;1.25;;;;;;;20.11;33.41;101362.66;6091737;29;20327;-48
2021/05/19 12:43:28;;;;;;;2.15;1.30;;;;;;;20.25;34.07;101349.72;6099369;29;20240;-50
2021/05/19 12:46:59;;;;;;;3.40;1.05;;;;;;;20.93;32.61;101354.84;6101437;29;20236;-49
2021/05/19 12:50:20;;;;;;;2.05;1.10;;;;;;;20.47;31.85;101340.91;6102999;28;20323;-51
2021/05/19 12:53:45;;;;;;;2.55;1.33;;;;;;;23.47;27.78;101344.25;6099607;28;20239;-52
2021/05/19 12:57:09;;;;;;;2.10;1.60;;;;;;;25.29;25.17;101340.72;6104016;29;20675;-51
2021/05/19 13:00:30;;;;;;;1.92;1.50;;;;;;;23.05;27.43;101356.22;6099180;29;20240;-50
2021/05/19 13:03:51;;;;;;;1.85;1.27;;;;;;;20.70;30.54;101353.19;6098525;29;20339;-51
2021/05/19 13:07:14;;;;;;;2.83;1.30;;;;;;;24.46;26.78;101339.53;6099163;29;20240;-48
2021/05/19 13:10:36;;;;;;;3.35;1.73;;;;;;;25.02;24.81;101345.06;6101586;29;20248;-49
2021/05/19 13:13:58;;;;;;;1.50;1.08;;;;;;;24.13;25.88;101337.88;6106073;29;20232;-48
2021/05/19 13:17:34;;;;;;;2.70;1.05;;;;;;;22.01;30.03;101342.81;6113506;29;20836;-49
2021/05/19 13:21:01;;;;;;;1.58;1.48;;;;;;;21.47;31.49;101346.31;6114261;29;20231;-49
2021/05/19 13:24:23;;;;;;;3.90;1.30;;;;;;;19.80;33.63;101350.66;6113360;29;20240;-49
2021/05/19 13:27:44;;;;;;;1.45;1.35;;;;;;;17.50;37.89;101362.78;6114200;29;20330;-47
2021/05/19 13:31:05;;;;;;;2.08;1.20;;;;;;;19.31;35.60;101352.53;6115647;29;20240;-51
2021/05/19 13:34:34;;;;;;;2.45;1.27;;;;;;;20.05;32.52;101352.34;6114510;29;20335;-48
2021/05/19 13:37:55;;;;;;;2.40;1.13;;;;;;;22.27;29.30;101342.50;6112481;28;20543;-48
2021/05/19 13:41:16;;;;;;;1.35;1.00;;;;;;;23.49;28.76;101347.66;6117322;29;20231;-52
2021/05/19 13:44:36;;;;;;;1.35;1.00;;;;;;;21.20;29.67;101344.81;6107832;29;20315;-48
2021/05/19 13:47:57;;;;;;;1.77;1.05;;;;;;;23.18;26.90;101341.38;6102930;29;20803;-49
2021/05/19 13:51:19;;;;;;;0.77;0.70;;;;;;;22.84;27.02;101345.78;6112529;29;20236;-49
2021/05/19 13:54:43;;;;;;;1.42;1.33;;;;;;;23.58;27.71;101337.38;6112414;28;20232;-49
2021/05/19 13:58:03;;;;;;;1.23;1.02;;;;;;;24.29;27.28;101340.50;6112692;28;20310;-50
2021/05/19 14:01:24;;;;;;;2.25;1.10;;;;;;;23.35;27.12;101341.31;6115123;28;20224;-47
2021/05/19 14:04:45;;;;;;;1.35;0.98;;;;;;;22.50;29.24;101333.38;6117958;29;20612;-47
2021/05/19 14:08:07;;;;;;;1.33;1.23;;;;;;;21.77;29.77;101346.63;6112384;28;20281;-50
2021/05/19 14:11:31;;;;;;;1.73;1.23;;;;;;;20.80;30.45;101346.59;6103331;29;20330;-51
2021/05/19 14:14:59;;;;;;;1.45;1.02;;;;;;;20.20;31.95;101353.50;6118649;29;20558;-46
2021/05/19 14:18:35;;;;;;;1.13;0.98;;;;;;;19.73;32.16;101357.09;6112845;29;20235;-48
2021/05/19 14:29:13;;;;;;;1.13;0.90;;;;;;;17.93;35.59;101388.78;6092306;28;20680;-53
2021/05/19 14:32:34;;;;;;;4.15;1.55;;;;;;;16.56;41.67;101408.31;6121165;28;20255;-51
2021/05/19 14:47:52;;;;;;;1.97;1.17;;;;;;;15.46;46.10;101452.66;6084230;29;20245;-49
2021/05/19 15:02:09;;;;;;;2.13;1.70;;;;;;;15.20;50.40;101473.25;6113713;29;20236;-50
2021/05/19 15:05:29;;;;;;;2.40;1.80;;;;;;;15.01;51.82;101485.84;6102907;28;20235;-50
2021/05/19 15:08:49;;;;;;;2.07;1.97;;;;;;;14.64;53.54;101489.94;6116483;28;20229;-50
2021/05/19 15:12:11;;;;;;;3.57;3.27;;;;;;;14.57;54.87;101493.53;6116571;28;20262;-50
2021/05/19 15:15:32;;;;;;;1.80;1.60;;;;;;;14.47;55.70;101490.13;6113047;28;20322;-52
2021/05/19 15:18:53;;;;;;;1.80;1.70;;;;;;;14.72;55.92;101495.91;6113263;28;20232;-52
2021/05/19 15:22:15;;;;;;;1.80;1.50;;;;;;;14.87;56.07;101493.94;6114150;28;20347;-52
2021/05/19 15:25:35;;;;;;;1.33;1.23;;;;;;;15.21;54.01;101493.38;6110465;29;20443;-48
2021/05/19 15:28:56;;;;;;;1.40;1.30;;;;;;;15.92;55.83;101477.19;6114729;28;20232;-49
2021/05/19 15:32:17;;;;;;;2.00;1.67;;;;;;;16.82;51.87;101486.56;6114361;29;20228;-48
2021/05/19 15:35:38;;;;;;;2.10;1.43;;;;;;;17.50;51.01;101476.00;6112288;28;20602;-51
2021/05/19 15:38:58;;;;;;;1.20;1.10;;;;;;;17.48;48.78;101469.06;6090227;29;20232;-53
2021/05/19 15:42:19;;;;;;;1.73;1.63;;;;;;;17.43;49.47;101466.56;6112937;29;20232;-50
2021/05/19 15:45:40;;;;;;;2.10;0.90;;;;;;;17.79;49.16;101470.84;6114258;29;20271;-48
2021/05/19 15:49:04;;;;;;;1.57;1.47;;;;;;;17.59;49.31;101464.38;6113678;29;20232;-49
2021/05/19 15:52:24;;;;;;;1.50;1.10;;;;;;;17.50;49.63;101460.22;6110824;29;20232;-53
2021/05/19 15:55:46;;;;;;;2.73;1.50;;;;;;;16.77;50.15;101459.47;6111213;28;20252;-52
2021/05/19 15:59:10;;;;;;;2.70;1.43;;;;;;;16.73;50.82;101456.94;6112199;29;20255;-54
2021/05/19 16:02:30;;;;;;;1.00;1.00;;;;;;;17.21;48.44;101453.09;6092977;29;20229;-51
2021/05/19 16:05:52;;;;;;;1.40;0.73;;;;;;;17.17;48.23;101447.97;6115446;28;20236;-52
2021/05/19 16:09:12;;;;;;;1.00;0.90;;;;;;;17.44;46.75;101444.59;6108881;29;20799;-47
2021/05/19 16:12:33;;;;;;;1.30;1.07;;;;;;;17.93;46.80;101452.03;6114088;29;20799;-53
2021/05/19 16:15:54;;;;;;;2.10;1.57;;;;;;;18.46;45.82;101452.16;6116815;28;20231;-51
2021/05/19 16:19:15;;;;;;;1.10;0.80;;;;;;;18.74;43.48;101452.13;6102515;29;20236;-51